Time;durP1;ratioP1;P1;durP2;ratioP2;P2;SDS_P1;SDS_P2;PMS_P1;PMS_P2;Temp;Humidity;BMP_temperature;BMP_pressure;BME280_temperature;BME280_humidity;BME280_pressure;Samples;Min_cycle;Max_cycle;Signal;HPM_P1;HPM_P2
2021/05/24 00:02:17;;;;;;;1.25;0.70;;;23.40;43.80;;;;;;5064024;28;20047;-48
2021/05/24 00:04:44;;;;;;;1.23;0.60;;;23.40;43.90;;;;;;5067782;28;20081;-53
2021/05/24 00:07:10;;;;;;;1.90;0.63;;;23.40;43.90;;;;;;5067722;28;20373;-50
2021/05/24 00:09:36;;;;;;;1.40;0.70;;;23.30;43.90;;;;;;5065789;28;20028;-52
2021/05/24 00:12:03;;;;;;;1.00;0.60;;;23.30;43.90;;;;;;5068318;28;20119;-59
2021/05/24 00:14:31;;;;;;;1.42;0.70;;;23.30;43.90;;;;;;5067554;28;20032;-55
2021/05/24 00:16:57;;;;;;;1.27;0.60;;;23.30;44.00;;;;;;5063810;28;20136;-55
2021/05/24 00:19:23;;;;;;;1.25;0.73;;;23.30;44.00;;;;;;5063638;28;20225;-52
2021/05/24 00:21:49;;;;;;;1.45;0.80;;;23.30;44.00;;;;;;5063710;28;20028;-52
2021/05/24 00:24:14;;;;;;;1.80;0.60;;;23.20;44.00;;;;;;5064949;28;20627;-59
2021/05/24 00:26:40;;;;;;;1.38;0.70;;;23.20;44.10;;;;;;5063358;28;20052;-51
2021/05/24 00:29:06;;;;;;;1.77;0.60;;;23.20;44.00;;;;;;5065318;28;20029;-57
2021/05/24 00:31:31;;;;;;;0.98;0.60;;;23.10;44.00;;;;;;5064234;28;20056;-55
2021/05/24 00:33:57;;;;;;;0.90;0.70;;;23.20;44.10;;;;;;5066767;28;20024;-55
2021/05/24 00:36:23;;;;;;;1.17;0.68;;;23.10;44.00;;;;;;5067836;28;20036;-51
2021/05/24 00:38:48;;;;;;;1.60;0.80;;;23.10;44.10;;;;;;5066519;28;20029;-51
2021/05/24 00:41:14;;;;;;;0.93;0.65;;;23.10;44.10;;;;;;5062691;28;20039;-52
2021/05/24 00:43:41;;;;;;;1.60;0.70;;;23.10;44.10;;;;;;5065213;28;20032;-50
2021/05/24 00:46:06;;;;;;;0.95;0.50;;;23.10;44.10;;;;;;5066662;28;20040;-50
2021/05/24 00:48:32;;;;;;;0.50;0.50;;;23.10;44.10;;;;;;5065453;28;20035;-53
2021/05/24 00:50:59;;;;;;;1.60;0.80;;;23.00;44.10;;;;;;5065840;28;20060;-51
2021/05/24 00:53:24;;;;;;;1.17;0.60;;;23.10;44.20;;;;;;5065314;28;20103;-55
2021/05/24 00:55:50;;;;;;;0.90;0.57;;;23.00;44.10;;;;;;5067033;28;20140;-53
2021/05/24 00:58:16;;;;;;;1.48;0.70;;;23.00;44.10;;;;;;5067315;28;20128;-56
2021/05/24 01:00:43;;;;;;;0.73;0.57;;;23.00;44.10;;;;;;5064494;28;20041;-53
2021/05/24 01:03:10;;;;;;;1.10;0.60;;;23.00;44.20;;;;;;5064009;28;20058;-52
2021/05/24 01:05:37;;;;;;;1.05;0.50;;;23.00;44.20;;;;;;5063910;28;20110;-53
2021/05/24 01:08:04;;;;;;;1.40;0.77;;;23.00;44.20;;;;;;5060427;28;20032;-50
2021/05/24 01:10:31;;;;;;;1.02;0.68;;;23.00;44.20;;;;;;5065985;28;20024;-52
2021/05/24 01:12:58;;;;;;;2.05;0.85;;;23.00;44.20;;;;;;5064789;28;20123;-56
2021/05/24 01:15:25;;;;;;;1.48;0.80;;;22.90;44.20;;;;;;5065164;28;20182;-50
2021/05/24 01:17:50;;;;;;;0.43;0.43;;;23.00;44.20;;;;;;5061143;28;20060;-52
2021/05/24 01:20:17;;;;;;;0.80;0.60;;;22.90;44.20;;;;;;5065109;28;20064;-53
2021/05/24 01:22:58;;;;;;;0.85;0.52;;;22.90;44.20;;;;;;5065086;28;20093;-51
2021/05/24 01:25:25;;;;;;;1.17;0.73;;;22.90;44.20;;;;;;5055558;28;20036;-54
2021/05/24 01:27:51;;;;;;;1.40;0.70;;;22.90;44.20;;;;;;5066589;28;20024;-53
2021/05/24 01:30:17;;;;;;;1.35;0.80;;;22.80;44.20;;;;;;5065992;28;20043;-53
2021/05/24 01:32:43;;;;;;;1.05;0.68;;;22.90;44.20;;;;;;5065610;28;20135;-54
2021/05/24 01:35:09;;;;;;;0.60;0.50;;;22.80;44.20;;;;;;5060635;28;20025;-54
2021/05/24 01:37:35;;;;;;;1.00;0.60;;;22.80;44.20;;;;;;5062705;28;20039;-55
2021/05/24 01:40:03;;;;;;;0.98;0.52;;;22.80;44.20;;;;;;5062276;28;20028;-57
2021/05/24 01:42:29;;;;;;;1.00;0.60;;;22.80;44.20;;;;;;5062167;28;20028;-53
2021/05/24 01:44:54;;;;;;;0.88;0.60;;;22.80;44.80;;;;;;5056705;28;20135;-56
2021/05/24 01:47:20;;;;;;;1.27;0.65;;;22.80;44.20;;;;;;5063660;28;20101;-51
2021/05/24 01:49:48;;;;;;;1.05;0.60;;;22.80;44.30;;;;;;5065728;28;20021;-54
2021/05/24 01:52:16;;;;;;;1.20;0.63;;;22.80;44.30;;;;;;5066357;28;20028;-52
2021/05/24 01:54:43;;;;;;;0.85;0.60;;;22.80;44.30;;;;;;5066277;28;20275;-55
2021/05/24 01:57:09;;;;;;;0.80;0.68;;;22.70;44.20;;;;;;5062259;28;20127;-52
2021/05/24 01:59:36;;;;;;;1.35;0.70;;;22.80;44.30;;;;;;5058746;28;20035;-51
2021/05/24 02:02:03;;;;;;;0.50;0.43;;;22.70;44.30;;;;;;5059819;28;20045;-58
2021/05/24 02:04:29;;;;;;;0.93;0.50;;;22.70;44.30;;;;;;5065689;28;20883;-51
2021/05/24 02:06:55;;;;;;;0.80;0.63;;;22.70;44.30;;;;;;5061623;28;20036;-52
2021/05/24 02:09:21;;;;;;;1.38;0.70;;;22.70;44.30;;;;;;5064130;28;20132;-50
2021/05/24 02:11:47;;;;;;;1.08;0.60;;;22.70;44.30;;;;;;5058033;28;20111;-55
2021/05/24 02:14:13;;;;;;;0.93;0.60;;;22.70;44.30;;;;;;5049683;28;20066;-54
2021/05/24 02:16:43;;;;;;;0.95;0.60;;;22.70;44.30;;;;;;5057070;28;20512;-52
2021/05/24 02:19:11;;;;;;;1.17;0.60;;;22.70;44.30;;;;;;5057828;28;20211;-59
2021/05/24 02:21:38;;;;;;;0.77;0.60;;;22.60;44.30;;;;;;5051135;28;20511;-51
2021/05/24 02:24:05;;;;;;;1.00;0.60;;;22.70;44.30;;;;;;5066255;28;20020;-59
2021/05/24 02:26:31;;;;;;;0.73;0.52;;;22.70;44.30;;;;;;5053096;28;20454;-56
2021/05/24 02:28:56;;;;;;;1.15;0.63;;;22.60;44.30;;;;;;5057879;28;20025;-54
2021/05/24 02:31:22;;;;;;;0.93;0.60;;;22.60;44.30;;;;;;5045161;28;20029;-54
2021/05/24 02:33:48;;;;;;;0.93;0.70;;;22.60;44.90;;;;;;5055548;28;20044;-53
2021/05/24 02:36:14;;;;;;;1.05;0.65;;;22.60;44.40;;;;;;5051179;28;20527;-56
2021/05/24 02:38:41;;;;;;;1.23;0.65;;;22.60;44.40;;;;;;5065485;28;20071;-55
2021/05/24 02:41:06;;;;;;;1.15;0.60;;;22.60;44.40;;;;;;5068272;28;20109;-51
2021/05/24 02:43:33;;;;;;;1.02;0.68;;;22.60;44.40;;;;;;5049816;28;20029;-56
2021/05/24 02:45:58;;;;;;;1.23;0.65;;;22.60;44.40;;;;;;5060722;28;20024;-53
2021/05/24 02:48:24;;;;;;;1.00;0.60;;;22.60;44.40;;;;;;5059657;28;20040;-53
2021/05/24 02:50:50;;;;;;;1.02;0.60;;;22.60;44.40;;;;;;5063761;28;20040;-53
2021/05/24 02:53:16;;;;;;;1.88;0.75;;;22.60;44.40;;;;;;5067533;28;20028;-53
2021/05/24 02:55:41;;;;;;;0.73;0.60;;;22.50;44.40;;;;;;5062503;28;20474;-52
2021/05/24 02:58:07;;;;;;;0.85;0.60;;;22.50;44.40;;;;;;5053236;28;20447;-53
2021/05/24 03:00:33;;;;;;;0.80;0.60;;;22.50;44.40;;;;;;5067499;28;20033;-51
2021/05/24 03:02:59;;;;;;;0.75;0.50;;;22.50;44.40;;;;;;5068950;28;20027;-50
2021/05/24 03:05:25;;;;;;;1.48;0.60;;;22.50;44.40;;;;;;5062390;28;20029;-51
2021/05/24 03:07:52;;;;;;;0.63;0.55;;;22.50;44.40;;;;;;5067787;28;20040;-52
2021/05/24 03:10:20;;;;;;;0.95;0.60;;;22.50;44.40;;;;;;5067960;28;20488;-55
2021/05/24 03:12:46;;;;;;;1.48;0.63;;;22.40;44.40;;;;;;5063580;28;20118;-49
2021/05/24 03:15:13;;;;;;;0.50;0.50;;;22.40;44.40;;;;;;5062098;28;20152;-53
2021/05/24 03:17:39;;;;;;;0.90;0.60;;;22.40;44.40;;;;;;5069158;28;20455;-51
2021/05/24 03:20:08;;;;;;;0.85;0.52;;;22.40;44.40;;;;;;5067936;28;20039;-52
2021/05/24 03:22:34;;;;;;;0.50;0.50;;;22.40;44.40;;;;;;5055885;28;20029;-59
2021/05/24 03:25:00;;;;;;;0.85;0.50;;;22.40;44.40;;;;;;5069012;28;20043;-51
2021/05/24 03:27:26;;;;;;;0.30;0.30;;;22.40;44.50;;;;;;5066445;28;20459;-50
2021/05/24 03:29:51;;;;;;;0.95;0.60;;;22.40;44.50;;;;;;5056559;28;20020;-54
2021/05/24 03:32:17;;;;;;;0.95;0.50;;;22.40;44.50;;;;;;5056088;28;20033;-55
2021/05/24 03:34:43;;;;;;;0.50;0.50;;;22.40;44.50;;;;;;5056221;28;20033;-50
2021/05/24 03:37:09;;;;;;;0.65;0.50;;;22.40;44.50;;;;;;5060972;28;20039;-52
2021/05/24 03:39:34;;;;;;;0.70;0.50;;;22.40;44.50;;;;;;5064907;28;20020;-52
2021/05/24 03:42:00;;;;;;;0.73;0.60;;;22.30;44.50;;;;;;5057545;28;20466;-53
2021/05/24 03:44:25;;;;;;;2.40;0.57;;;22.30;44.50;;;;;;5068732;28;20505;-55
2021/05/24 03:46:51;;;;;;;0.93;0.63;;;22.30;44.50;;;;;;5065912;28;20051;-50
2021/05/24 03:49:17;;;;;;;1.80;0.65;;;22.30;44.50;;;;;;5068331;28;20033;-57
2021/05/24 03:51:43;;;;;;;0.68;0.60;;;22.30;44.50;;;;;;5067395;28;20087;-53
2021/05/24 03:54:09;;;;;;;1.55;0.50;;;22.30;45.00;;;;;;5063591;28;20170;-55
2021/05/24 03:56:35;;;;;;;0.85;0.60;;;22.30;44.50;;;;;;5059716;28;20037;-55
2021/05/24 03:59:00;;;;;;;0.98;0.60;;;22.30;44.50;;;;;;5065644;28;20443;-54
2021/05/24 04:01:26;;;;;;;1.05;0.60;;;22.30;44.50;;;;;;5061414;28;20217;-56
2021/05/24 04:03:53;;;;;;;0.60;0.60;;;22.30;44.50;;;;;;5066557;28;20040;-57
2021/05/24 04:06:19;;;;;;;1.02;0.55;;;22.30;44.50;;;;;;5066936;28;20397;-50
2021/05/24 04:08:47;;;;;;;1.20;0.60;;;22.30;44.50;;;;;;5066975;28;20028;-52
2021/05/24 04:11:14;;;;;;;0.70;0.50;;;22.20;44.50;;;;;;5067335;28;20036;-50
2021/05/24 04:13:45;;;;;;;1.00;0.77;;;22.30;44.50;;;;;;5063699;28;20037;-51
2021/05/24 04:16:10;;;;;;;0.90;0.68;;;22.30;44.50;;;;;;5065226;28;20440;-51
2021/05/24 04:18:36;;;;;;;0.85;0.60;;;22.20;44.50;;;;;;5056920;28;20025;-54
2021/05/24 04:21:03;;;;;;;0.82;0.60;;;22.20;44.50;;;;;;5068003;28;20134;-56
2021/05/24 04:23:29;;;;;;;0.50;0.50;;;22.20;44.50;;;;;;5058974;28;20028;-57
2021/05/24 04:25:55;;;;;;;0.55;0.55;;;22.20;44.60;;;;;;5063813;28;20538;-52
2021/05/24 04:28:20;;;;;;;0.98;0.60;;;22.20;44.50;;;;;;5054694;28;20082;-60
2021/05/24 04:30:46;;;;;;;0.50;0.50;;;22.20;44.60;;;;;;5067189;28;20105;-57
2021/05/24 04:33:12;;;;;;;0.70;0.50;;;22.20;44.50;;;;;;5067186;28;20033;-51
2021/05/24 04:35:38;;;;;;;1.35;0.60;;;22.20;44.60;;;;;;5061263;28;20029;-55
2021/05/24 04:38:05;;;;;;;0.65;0.52;;;22.20;44.60;;;;;;5060189;28;20059;-52
2021/05/24 04:40:31;;;;;;;0.63;0.50;;;22.20;44.60;;;;;;5053768;28;20036;-50
2021/05/24 04:42:58;;;;;;;0.77;0.60;;;22.20;44.60;;;;;;5059410;28;20091;-55
2021/05/24 04:45:24;;;;;;;0.80;0.60;;;22.10;44.50;;;;;;5065164;28;20043;-55
2021/05/24 04:47:50;;;;;;;0.52;0.50;;;22.20;44.60;;;;;;5064061;28;20024;-54
2021/05/24 04:50:16;;;;;;;0.77;0.60;;;22.20;44.60;;;;;;5062946;28;20043;-54
2021/05/24 04:52:42;;;;;;;0.82;0.60;;;22.10;44.60;;;;;;5059429;28;20146;-56
2021/05/24 04:55:09;;;;;;;0.50;0.40;;;22.10;44.60;;;;;;5066205;28;20079;-51
2021/05/24 04:57:35;;;;;;;1.27;0.57;;;22.20;44.60;;;;;;5064078;28;20074;-58
2021/05/24 05:00:01;;;;;;;0.60;0.50;;;22.10;44.60;;;;;;5051637;28;20024;-51
2021/05/24 05:02:28;;;;;;;0.65;0.55;;;22.10;44.60;;;;;;5054208;28;20549;-50
2021/05/24 05:04:55;;;;;;;1.52;0.50;;;22.10;44.60;;;;;;5053275;28;20110;-51
2021/05/24 05:07:22;;;;;;;0.57;0.50;;;22.10;44.60;;;;;;5059885;28;20233;-50
2021/05/24 05:09:47;;;;;;;0.80;0.60;;;22.10;44.60;;;;;;5066521;28;20482;-56
2021/05/24 05:12:13;;;;;;;0.77;0.57;;;22.10;44.70;;;;;;5066215;28;20024;-51
2021/05/24 05:14:38;;;;;;;0.75;0.60;;;22.10;44.60;;;;;;5062207;28;20377;-48
2021/05/24 05:17:04;;;;;;;1.38;0.70;;;22.10;44.60;;;;;;5061892;28;20656;-52
2021/05/24 05:19:30;;;;;;;0.47;0.47;;;22.10;44.60;;;;;;5050390;28;20033;-52
2021/05/24 05:21:55;;;;;;;0.60;0.60;;;22.10;44.70;;;;;;5063929;28;20063;-52
2021/05/24 05:24:21;;;;;;;0.50;0.50;;;22.10;44.70;;;;;;5063684;28;20127;-59
2021/05/24 05:26:47;;;;;;;1.17;0.60;;;22.00;44.60;;;;;;5063956;28;20040;-54
2021/05/24 05:29:13;;;;;;;1.17;0.60;;;22.00;44.60;;;;;;5060845;28;20526;-53
2021/05/24 05:31:39;;;;;;;0.73;0.57;;;22.00;44.60;;;;;;5065512;28;20059;-51
2021/05/24 05:34:05;;;;;;;0.68;0.60;;;22.00;44.60;;;;;;5065345;28;20103;-53
2021/05/24 05:36:32;;;;;;;1.13;0.50;;;22.00;44.60;;;;;;5066301;28;20439;-54
2021/05/24 05:38:57;;;;;;;0.82;0.50;;;22.00;44.60;;;;;;5064393;28;20067;-56
2021/05/24 05:41:23;;;;;;;0.75;0.55;;;22.00;44.60;;;;;;5059731;28;20036;-56
2021/05/24 05:43:48;;;;;;;0.80;0.50;;;22.00;44.70;;;;;;5058160;28;20447;-55
2021/05/24 05:46:15;;;;;;;0.70;0.50;;;22.00;44.70;;;;;;5048264;28;20446;-51
2021/05/24 05:48:40;;;;;;;0.43;0.43;;;22.00;44.70;;;;;;5057854;28;20028;-50
2021/05/24 05:51:06;;;;;;;0.50;0.50;;;22.00;45.20;;;;;;5063675;28;20443;-52
2021/05/24 05:53:32;;;;;;;0.65;0.55;;;22.00;44.70;;;;;;5061445;28;20369;-54
2021/05/24 05:55:58;;;;;;;0.60;0.60;;;22.00;44.70;;;;;;5049676;28;20043;-53
2021/05/24 05:58:24;;;;;;;0.80;0.50;;;22.00;44.70;;;;;;5064297;28;20451;-55
2021/05/24 06:00:50;;;;;;;0.93;0.60;;;22.00;44.70;;;;;;5059584;28;20048;-56
2021/05/24 06:03:16;;;;;;;0.50;0.50;;;22.00;44.70;;;;;;5058496;28;20036;-56
2021/05/24 06:05:42;;;;;;;0.50;0.50;;;21.90;44.70;;;;;;5049802;28;20130;-57
2021/05/24 06:08:07;;;;;;;0.90;0.50;;;22.00;44.70;;;;;;5058359;28;20444;-56
2021/05/24 06:10:34;;;;;;;0.50;0.50;;;22.00;44.70;;;;;;5060544;28;20020;-54
2021/05/24 06:13:01;;;;;;;1.35;0.60;;;21.90;44.60;;;;;;5062068;28;20540;-51
2021/05/24 06:15:27;;;;;;;0.40;0.40;;;22.00;44.70;;;;;;5063815;28;20253;-53
2021/05/24 06:17:52;;;;;;;0.50;0.50;;;21.90;44.60;;;;;;5063350;28;20032;-52
2021/05/24 06:20:19;;;;;;;1.27;0.60;;;21.90;44.70;;;;;;5062972;28;20036;-57
2021/05/24 06:22:44;;;;;;;0.55;0.55;;;21.90;44.70;;;;;;5063808;28;20465;-57
2021/05/24 06:25:11;;;;;;;0.65;0.60;;;21.90;44.70;;;;;;5064828;28;20164;-50
2021/05/24 06:27:37;;;;;;;0.82;0.60;;;21.90;44.70;;;;;;5065276;28;20467;-59
2021/05/24 06:30:06;;;;;;;0.50;0.50;;;21.90;44.70;;;;;;5067378;28;20078;-57
2021/05/24 06:32:31;;;;;;;0.63;0.50;;;21.90;44.70;;;;;;5071725;28;20066;-57
2021/05/24 06:34:57;;;;;;;0.70;0.63;;;21.90;45.20;;;;;;5070854;28;20037;-58
2021/05/24 06:37:23;;;;;;;0.57;0.55;;;21.90;44.60;;;;;;5066865;28;20025;-57
2021/05/24 06:39:48;;;;;;;1.00;0.63;;;21.90;44.60;;;;;;5072093;28;20032;-55
2021/05/24 06:42:14;;;;;;;1.17;0.60;;;21.90;44.70;;;;;;5062234;28;20135;-51
2021/05/24 06:44:40;;;;;;;0.95;0.50;;;21.80;44.60;;;;;;5064264;28;20075;-50
2021/05/24 06:47:05;;;;;;;0.95;0.70;;;21.90;44.70;;;;;;5052781;28;20025;-57
2021/05/24 06:49:34;;;;;;;1.30;0.60;;;21.90;44.70;;;;;;5068404;28;20362;-53
2021/05/24 06:52:00;;;;;;;0.85;0.65;;;21.90;44.70;;;;;;5072308;28;20107;-55
2021/05/24 06:54:26;;;;;;;0.98;0.55;;;21.80;44.60;;;;;;5066203;28;20032;-51
2021/05/24 06:56:52;;;;;;;0.52;0.50;;;21.90;44.70;;;;;;5073148;28;20068;-55
2021/05/24 06:59:18;;;;;;;0.75;0.52;;;21.90;44.70;;;;;;5059456;28;20403;-54
2021/05/24 07:01:43;;;;;;;0.80;0.60;;;21.90;44.70;;;;;;5054055;28;20055;-51
2021/05/24 07:04:09;;;;;;;0.60;0.60;;;21.90;44.70;;;;;;5057109;28;20031;-50
2021/05/24 07:06:35;;;;;;;0.60;0.50;;;21.90;44.70;;;;;;5070917;28;20124;-59
2021/05/24 07:09:00;;;;;;;0.93;0.50;;;21.90;44.70;;;;;;5065937;28;20048;-52
2021/05/24 07:11:26;;;;;;;0.80;0.60;;;21.90;44.70;;;;;;5070916;28;20082;-56
2021/05/24 07:13:52;;;;;;;1.10;0.70;;;21.90;44.70;;;;;;5062260;28;20052;-55
2021/05/24 07:16:17;;;;;;;0.80;0.50;;;21.90;44.70;;;;;;5062536;28;20037;-54
2021/05/24 07:18:43;;;;;;;0.65;0.50;;;21.90;44.70;;;;;;5061898;28;20032;-51
2021/05/24 07:21:09;;;;;;;0.60;0.50;;;21.80;44.70;;;;;;5071534;28;20028;-51
2021/05/24 07:23:35;;;;;;;0.85;0.52;;;21.80;44.70;;;;;;5059923;28;20459;-53
2021/05/24 07:26:00;;;;;;;0.40;0.40;;;21.80;44.70;;;;;;5069825;28;20028;-50
2021/05/24 07:28:26;;;;;;;0.70;0.52;;;21.80;44.70;;;;;;5063016;28;20503;-54
2021/05/24 07:30:52;;;;;;;0.90;0.60;;;21.90;44.80;;;;;;5065986;28;20535;-52
2021/05/24 07:33:17;;;;;;;1.45;0.60;;;21.80;44.80;;;;;;5064385;28;20135;-53
2021/05/24 07:35:43;;;;;;;1.05;0.50;;;21.80;44.80;;;;;;5048670;28;20028;-55
2021/05/24 07:38:09;;;;;;;0.70;0.60;;;21.80;44.80;;;;;;5068533;28;20445;-55
2021/05/24 07:40:36;;;;;;;0.90;0.60;;;21.80;44.80;;;;;;5063558;28;20029;-54
2021/05/24 07:43:02;;;;;;;1.23;0.60;;;21.80;44.80;;;;;;5054555;28;20036;-54
2021/05/24 07:45:27;;;;;;;2.20;0.70;;;21.80;44.90;;;;;;5063325;28;20052;-54
2021/05/24 07:47:53;;;;;;;1.17;0.60;;;21.80;44.90;;;;;;5060100;28;20021;-56
2021/05/24 07:50:20;;;;;;;1.10;0.73;;;21.80;44.90;;;;;;5064785;28;20020;-53
2021/05/24 07:52:46;;;;;;;0.63;0.50;;;21.80;44.90;;;;;;5064253;28;20373;-56
2021/05/24 07:55:12;;;;;;;2.47;0.80;;;21.80;44.90;;;;;;5063063;28;20071;-57
2021/05/24 07:57:39;;;;;;;1.70;0.60;;;21.80;45.00;;;;;;5064029;28;20028;-55
2021/05/24 08:00:07;;;;;;;1.40;0.60;;;21.80;45.00;;;;;;5060947;28;20029;-54
2021/05/24 08:02:33;;;;;;;2.17;0.80;;;21.80;45.00;;;;;;5045831;28;20090;-54
2021/05/24 08:04:59;;;;;;;1.38;0.70;;;21.80;45.00;;;;;;5052095;28;20745;-53
2021/05/24 08:07:25;;;;;;;1.05;0.70;;;21.80;45.00;;;;;;5066188;28;20150;-56
2021/05/24 08:09:51;;;;;;;1.42;0.75;;;21.80;45.10;;;;;;5064345;28;20071;-58
2021/05/24 08:12:17;;;;;;;2.00;0.70;;;21.80;45.10;;;;;;5057854;28;20075;-56
2021/05/24 08:14:43;;;;;;;2.90;0.70;;;21.80;45.10;;;;;;5063986;28;20025;-54
2021/05/24 08:17:09;;;;;;;1.02;0.60;;;21.80;45.10;;;;;;5068296;28;20025;-59
2021/05/24 08:19:35;;;;;;;1.27;0.65;;;21.80;45.10;;;;;;5066054;28;20032;-59
2021/05/24 08:22:00;;;;;;;1.70;0.65;;;21.80;45.30;;;;;;5065436;28;20109;-56
2021/05/24 08:24:26;;;;;;;1.73;0.80;;;21.80;45.20;;;;;;5068063;28;20033;-57
2021/05/24 08:26:52;;;;;;;1.90;0.75;;;21.80;45.20;;;;;;5054087;28;20159;-55
2021/05/24 08:29:18;;;;;;;1.65;0.80;;;21.80;45.20;;;;;;5067524;28;20032;-53
2021/05/24 08:31:43;;;;;;;1.30;0.70;;;21.80;45.20;;;;;;5066574;28;20048;-51
2021/05/24 08:34:09;;;;;;;0.88;0.60;;;21.80;45.30;;;;;;5060385;28;20506;-55
2021/05/24 08:36:36;;;;;;;1.73;0.70;;;21.80;45.20;;;;;;5062348;28;20654;-57
2021/05/24 08:39:03;;;;;;;2.47;0.80;;;21.80;45.30;;;;;;5067147;28;20028;-52
2021/05/24 08:41:32;;;;;;;2.03;0.80;;;21.80;45.30;;;;;;5054207;28;20024;-52
2021/05/24 08:43:57;;;;;;;0.98;0.70;;;21.70;45.30;;;;;;5056221;28;20050;-54
2021/05/24 08:46:25;;;;;;;1.40;0.70;;;21.80;45.30;;;;;;5063380;28;20032;-58
2021/05/24 08:48:51;;;;;;;2.50;0.90;;;21.80;45.30;;;;;;5064273;28;20076;-53
2021/05/24 08:51:16;;;;;;;2.25;0.75;;;21.80;45.30;;;;;;5056198;28;20048;-54
2021/05/24 08:53:42;;;;;;;2.28;0.90;;;21.80;45.30;;;;;;5047072;28;20420;-57
2021/05/24 08:56:08;;;;;;;2.03;0.80;;;21.70;45.30;;;;;;5054298;28;20154;-54
2021/05/24 08:58:35;;;;;;;2.05;0.75;;;21.70;45.30;;;;;;5047173;28;20051;-54
2021/05/24 09:01:01;;;;;;;1.92;0.90;;;21.80;45.30;;;;;;5050699;28;20048;-51
2021/05/24 09:03:31;;;;;;;1.73;0.75;;;21.80;45.30;;;;;;5064845;28;20119;-56
2021/05/24 09:06:00;;;;;;;1.23;0.70;;;21.70;45.30;;;;;;5060905;28;20040;-59
2021/05/24 09:08:37;;;;;;;1.48;0.70;;;21.70;45.30;;;;;;5049594;28;20040;-50
2021/05/24 09:11:04;;;;;;;1.30;0.70;;;21.70;45.30;;;;;;5049423;28;20451;-51
2021/05/24 09:13:32;;;;;;;0.85;0.60;;;21.80;45.40;;;;;;5067128;28;20158;-54
2021/05/24 09:15:58;;;;;;;1.50;0.70;;;21.80;45.40;;;;;;5067020;28;20433;-58
2021/05/24 09:18:24;;;;;;;1.90;0.80;;;21.70;45.30;;;;;;5066864;28;20107;-59
2021/05/24 09:20:50;;;;;;;3.08;0.80;;;21.70;45.30;;;;;;5065439;28;20088;-52
2021/05/24 09:23:26;;;;;;;2.13;0.90;;;21.70;45.30;;;;;;5057772;28;20029;-57
2021/05/24 09:25:59;;;;;;;1.45;0.80;;;21.70;45.30;;;;;;5046840;28;20110;-57
2021/05/24 09:28:32;;;;;;;1.92;0.80;;;21.70;45.40;;;;;;5063439;28;20040;-53
2021/05/24 09:31:03;;;;;;;2.13;0.77;;;21.70;45.40;;;;;;5064985;28;20054;-53
2021/05/24 09:33:29;;;;;;;3.80;0.80;;;21.70;45.40;;;;;;5064714;28;20036;-50
2021/05/24 09:35:55;;;;;;;1.33;0.70;;;21.80;45.50;;;;;;5052113;28;20422;-55
2021/05/24 09:38:22;;;;;;;1.27;0.73;;;21.70;45.40;;;;;;5053323;28;20036;-50
2021/05/24 09:40:57;;;;;;;1.42;0.80;;;21.70;45.50;;;;;;5059686;28;20040;-56
2021/05/24 09:43:30;;;;;;;2.30;0.80;;;21.70;45.50;;;;;;5060505;28;20386;-59
2021/05/24 09:46:09;;;;;;;1.50;0.70;;;21.70;45.50;;;;;;5061814;28;20060;-58
2021/05/24 09:48:35;;;;;;;1.02;0.68;;;21.70;45.50;;;;;;5066313;28;20370;-55
2021/05/24 09:51:13;;;;;;;2.10;0.77;;;21.70;45.50;;;;;;5064850;28;20033;-57
2021/05/24 09:53:40;;;;;;;1.35;0.65;;;21.70;45.50;;;;;;5057872;28;20158;-56
2021/05/24 09:56:09;;;;;;;1.73;0.85;;;21.80;45.60;;;;;;5057089;28;20025;-52
2021/05/24 09:58:36;;;;;;;2.53;0.82;;;21.70;45.50;;;;;;5055358;28;20557;-59
2021/05/24 10:01:23;;;;;;;2.47;0.77;;;21.70;45.60;;;;;;5054540;28;20036;-56
2021/05/24 10:03:59;;;;;;;2.80;1.10;;;21.70;45.60;;;;;;5054167;28;20474;-53
2021/05/24 10:06:25;;;;;;;2.78;0.85;;;21.70;45.60;;;;;;5055229;28;20028;-54
2021/05/24 10:08:53;;;;;;;1.63;0.80;;;21.80;45.70;;;;;;5057746;28;20542;-59
2021/05/24 10:11:19;;;;;;;2.85;0.70;;;21.80;45.70;;;;;;5056791;28;20035;-54
2021/05/24 10:13:46;;;;;;;1.58;0.70;;;21.80;45.70;;;;;;5055135;28;20111;-54
2021/05/24 10:16:14;;;;;;;2.72;0.80;;;21.70;46.10;;;;;;5055058;28;20515;-54
2021/05/24 10:18:40;;;;;;;2.65;0.90;;;21.80;45.70;;;;;;5054954;28;20144;-53
2021/05/24 10:21:07;;;;;;;2.30;0.70;;;21.80;45.60;;;;;;5057748;28;20033;-54
2021/05/24 10:23:33;;;;;;;2.13;0.60;;;21.80;46.10;;;;;;5053536;28;20050;-60
2021/05/24 10:26:02;;;;;;;1.27;0.70;;;21.80;45.60;;;;;;5054963;28;20042;-53
2021/05/24 10:28:30;;;;;;;1.88;0.80;;;21.80;45.60;;;;;;5068790;28;20036;-57
2021/05/24 10:30:57;;;;;;;1.13;0.73;;;21.80;45.70;;;;;;5053131;28;20047;-57
2021/05/24 10:33:36;;;;;;;1.83;0.70;;;21.80;45.60;;;;;;5053943;28;20451;-59
2021/05/24 10:36:17;;;;;;;2.40;0.60;;;21.80;45.70;;;;;;5053399;28;20028;-58
2021/05/24 10:38:44;;;;;;;2.17;0.95;;;21.80;45.70;;;;;;5051726;28;20037;-53
2021/05/24 10:41:12;;;;;;;2.63;0.82;;;21.80;45.70;;;;;;5059776;28;20047;-48
2021/05/24 10:43:42;;;;;;;3.50;0.90;;;21.80;45.60;;;;;;5058147;28;20060;-59
2021/05/24 10:46:26;;;;;;;2.03;0.82;;;21.80;45.60;;;;;;5061169;28;20349;-56
2021/05/24 10:48:56;;;;;;;1.92;0.88;;;21.80;45.60;;;;;;5058203;28;20062;-53
2021/05/24 10:51:41;;;;;;;3.22;0.70;;;21.80;45.60;;;;;;5055840;28;20478;-58
2021/05/24 10:54:07;;;;;;;2.33;0.88;;;21.80;45.60;;;;;;5056813;28;20096;-57
2021/05/24 10:56:33;;;;;;;4.10;0.90;;;21.80;46.00;;;;;;5060386;28;20351;-57
2021/05/24 10:58:58;;;;;;;2.30;0.88;;;21.90;46.30;;;;;;5065408;28;20119;-57
2021/05/24 11:01:24;;;;;;;2.53;0.80;;;21.90;46.20;;;;;;5063756;28;20219;-57
2021/05/24 11:04:10;;;;;;;3.17;0.85;;;21.90;46.20;;;;;;5060534;28;20082;-57
2021/05/24 11:06:35;;;;;;;2.58;0.88;;;22.00;46.30;;;;;;5046117;28;20032;-55
2021/05/24 11:09:05;;;;;;;3.47;0.73;;;22.00;46.20;;;;;;5060588;28;20033;-57
2021/05/24 11:11:35;;;;;;;3.08;0.80;;;22.00;46.20;;;;;;5065806;28;20059;-58
2021/05/24 11:14:03;;;;;;;3.30;0.90;;;22.00;46.20;;;;;;5048161;28;20087;-52
2021/05/24 11:16:32;;;;;;;3.35;1.13;;;22.10;46.20;;;;;;5045230;28;20040;-51
2021/05/24 11:19:09;;;;;;;3.95;1.00;;;22.10;46.20;;;;;;5057596;28;20121;-55
2021/05/24 11:21:37;;;;;;;2.75;1.05;;;22.10;46.30;;;;;;5058076;28;20560;-59
2021/05/24 11:24:33;;;;;;;2.92;1.00;;;22.10;46.20;;;;;;5061283;28;20032;-55
2021/05/24 11:27:11;;;;;;;2.22;0.95;;;22.20;46.30;;;;;;5060254;28;20371;-56
2021/05/24 11:29:38;;;;;;;3.28;1.00;;;22.20;46.30;;;;;;5061919;28;20033;-54
2021/05/24 11:32:26;;;;;;;2.60;0.93;;;22.20;46.30;;;;;;5062928;28;20375;-58
2021/05/24 11:34:52;;;;;;;2.25;1.00;;;22.20;46.30;;;;;;5063848;28;20041;-55
2021/05/24 11:37:20;;;;;;;2.97;1.00;;;22.20;46.20;;;;;;5064743;28;20033;-57
2021/05/24 11:39:50;;;;;;;2.42;1.00;;;22.30;46.30;;;;;;5057493;28;20086;-57
2021/05/24 11:42:21;;;;;;;4.22;0.98;;;22.30;46.20;;;;;;5051278;28;20044;-53
2021/05/24 11:44:48;;;;;;;2.08;0.80;;;22.30;46.20;;;;;;5057420;28;20044;-55
2021/05/24 11:47:20;;;;;;;3.10;1.15;;;22.40;46.20;;;;;;5062958;28;20028;-58
2021/05/24 11:49:51;;;;;;;3.15;0.90;;;22.40;46.20;;;;;;5056155;28;20048;-58
2021/05/24 11:52:29;;;;;;;2.95;0.90;;;22.40;46.20;;;;;;5056222;28;20075;-61
2021/05/24 11:54:54;;;;;;;2.40;0.80;;;22.50;46.20;;;;;;5051721;28;20033;-56
2021/05/24 11:57:25;;;;;;;4.50;1.00;;;22.50;46.10;;;;;;5060374;28;20037;-52
2021/05/24 11:59:51;;;;;;;2.88;0.88;;;22.50;46.10;;;;;;5055208;28;20139;-61
2021/05/24 12:02:19;;;;;;;2.40;0.90;;;22.50;46.00;;;;;;5059270;28;20040;-57
2021/05/24 12:04:47;;;;;;;3.28;1.10;;;22.60;46.00;;;;;;5042016;28;20507;-52
2021/05/24 12:07:21;;;;;;;5.07;1.10;;;22.60;46.00;;;;;;5042686;28;20025;-56
2021/05/24 12:09:54;;;;;;;3.95;1.35;;;22.60;46.00;;;;;;5046085;28;20040;-58
2021/05/24 12:12:22;;;;;;;3.67;1.00;;;22.60;46.00;;;;;;5055789;28;20047;-58
2021/05/24 12:14:53;;;;;;;6.43;1.10;;;22.60;46.00;;;;;;5054635;28;20032;-53
2021/05/24 12:17:22;;;;;;;4.80;0.98;;;22.70;46.00;;;;;;5058175;28;20036;-55
2021/05/24 12:19:51;;;;;;;2.97;1.10;;;22.70;46.00;;;;;;5059083;28;20071;-53
2021/05/24 12:22:17;;;;;;;5.32;1.20;;;22.70;46.00;;;;;;5053916;28;20081;-56
2021/05/24 12:24:45;;;;;;;5.38;1.00;;;22.70;46.00;;;;;;5060698;28;20826;-60
2021/05/24 12:27:13;;;;;;;5.47;1.08;;;22.80;46.00;;;;;;5059626;28;20024;-57
2021/05/24 12:29:51;;;;;;;7.72;1.65;;;22.80;45.90;;;;;;5057109;28;20051;-53
2021/05/24 12:32:26;;;;;;;6.05;1.35;;;22.80;45.80;;;;;;5058913;28;20063;-56
2021/05/24 12:34:51;;;;;;;3.97;1.33;;;22.80;46.00;;;;;;5053538;28;20797;-56
2021/05/24 12:37:18;;;;;;;5.97;1.20;;;22.90;45.90;;;;;;5055865;28;20108;-57
2021/05/24 12:39:48;;;;;;;2.28;0.70;;;22.90;46.00;;;;;;5059662;28;20536;-58
2021/05/24 12:42:14;;;;;;;;;;;22.90;46.00;;;;;;5057597;28;20090;-53
2021/05/24 12:44:40;;;;;;;3.58;1.17;;;22.90;46.00;;;;;;5053341;28;19942;-59
2021/05/24 12:47:20;;;;;;;3.67;1.00;;;22.90;45.80;;;;;;5053026;28;20032;-59
2021/05/24 12:49:47;;;;;;;7.90;1.65;;;22.90;45.90;;;;;;5045591;28;20060;-55